This is the latest recevied weather packets stored in our database for station/object KC5TIL. If no packets are shown the sender has not sent any weather packets the latest 1 day(s).
| Time | Temp. | Humidity | Pressure | Rain* | Wind** | Luminosity | Snow |
|---|---|---|---|---|---|---|---|
| 1778082998 | 12.78° C | 87% | 1016.5 hPa | 0 mm | - | 249 W/m² | - |
| 1778080951 | 11.67° C | 92% | 1015.6 hPa | 0 mm | - | 174 W/m² | - |
| 1778080650 | 11.67° C | 92% | 1016.4 hPa | 1.78 mm | - | 115 W/m² | - |
| 1778079437 | 12.22° C | 87% | 1017.9 hPa | 1.27 mm | - | 23 W/m² | - |
| 1778079133 | 12.22° C | 85% | 1018.1 hPa | 0 mm | - | 11 W/m² | - |
| 1778077621 | 12.22° C | 82% | 1016.6 hPa | 0 mm | - | 32 W/m² | - |
| 1778077016 | 12.22° C | 82% | 1016.2 hPa | 0 mm | - | 50 W/m² | - |
| 1778076714 | 12.22° C | 82% | 1016.1 hPa | 0 mm | - | 61 W/m² | - |
| 1778073986 | 12.22° C | 81% | 1015.6 hPa | 0 mm | - | 54 W/m² | - |
| 1778073380 | 12.78° C | 79% | 1015.6 hPa | 0 mm | - | 52 W/m² | - |
| 1778073076 | 12.78° C | 79% | 1015.3 hPa | 0 mm | - | 53 W/m² | - |
| 1778072169 | 12.78° C | 78% | 1014.9 hPa | 0 mm | - | 34 W/m² | - |
| 1778070052 | 13.33° C | 75% | 1014.6 hPa | 0 mm | - | 15 W/m² | - |
| 1778069749 | 13.33° C | 76% | 1014.4 hPa | 0 mm | - | 16 W/m² | - |
| 1778068840 | 13.33° C | 76% | 1014.6 hPa | 0 mm | - | 5 W/m² | - |
| 1778068538 | 13.89° C | 76% | 1014.3 hPa | 0 mm | - | 3 W/m² | - |
| 1778068236 | 13.89° C | 76% | 1014.5 hPa | 0 mm | - | 1 W/m² | - |
| 1778067632 | 13.89° C | 75% | 1014.2 hPa | 0 mm | - | 0 W/m² | - |
| 1778065815 | 14.44° C | 75% | 1013.2 hPa | 0 mm | - | 0 W/m² | - |
| 1778065513 | 14.44° C | 74% | 1013.5 hPa | 0 mm | - | 0 W/m² | - |
| 1778065210 | 14.44° C | 75% | 1013.7 hPa | 0 mm | - | 0 W/m² | - |
| 1778064301 | 14.44° C | 75% | 1013.2 hPa | 0 mm | - | 0 W/m² | - |
| 1778063999 | 14.44° C | 75% | 1013.3 hPa | 0 mm | - | 0 W/m² | - |
| 1778062788 | 15° C | 76% | 1012.7 hPa | 0 mm | - | 0 W/m² | - |
| 1778060065 | 15.56° C | 75% | 1012 hPa | 0 mm | - | 0 W/m² | - |
* Rain latest hour (hover to see other rain measurements)
** Current wind speed in m/s (hover to see current wind gust speed)